createdAt,value
2023-01-20T00:01:47.902Z,98284.44
2023-01-20T00:06:50.113Z,98256.78
2023-01-20T00:11:52.366Z,98313.41
2023-01-20T00:16:57.286Z,98138.63
2023-01-20T00:21:59.445Z,98239.22
2023-01-20T00:27:01.704Z,98311.22
2023-01-20T00:32:04.097Z,98151.25
2023-01-20T00:37:06.361Z,98256.81
2023-01-20T00:42:08.576Z,98215.97
2023-01-20T00:47:10.862Z,98326.03
2023-01-20T00:52:13.209Z,98335.06
2023-01-20T00:57:15.429Z,98324.13
2023-01-20T01:02:17.747Z,98382.06
2023-01-20T01:07:20.208Z,98288.56
2023-01-20T01:12:22.458Z,98288.09
2023-01-20T01:17:24.822Z,98368.25
2023-01-20T01:22:27.146Z,98365.16
2023-01-20T01:27:29.774Z,98406.41
2023-01-20T01:32:32.250Z,98364.81
2023-01-20T01:37:34.619Z,98406.59
2023-01-20T01:42:37.580Z,98381.66
2023-01-20T01:47:55.102Z,98317.09
2023-01-20T01:52:57.738Z,98411.19
2023-01-20T01:58:00.767Z,98368.69
2023-01-20T02:03:03.191Z,98326.94
2023-01-20T02:08:07.701Z,98418.59
2023-01-20T02:13:10.062Z,98310.03
2023-01-20T02:18:43.234Z,98246.09
2023-01-20T02:24:35.761Z,98307.13
2023-01-20T02:30:21.456Z,98396.13
2023-01-20T02:36:06.083Z,98395.59
2023-01-20T02:41:17.979Z,98315.72
2023-01-20T02:46:48.746Z,98242.38
2023-01-20T02:52:15.173Z,98309.56
2023-01-20T02:57:24.646Z,98391.81
2023-01-20T03:02:30.064Z,98267.34
2023-01-20T03:07:37.494Z,98413.94
2023-01-20T03:12:50.949Z,98440.44
2023-01-20T03:17:53.397Z,98400.38
2023-01-20T03:22:55.748Z,98431.50
2023-01-20T03:27:58.102Z,98466.28
2023-01-20T03:33:01.570Z,98439.66
2023-01-20T03:38:03.918Z,98395.72
2023-01-20T03:43:24.123Z,98332.44
2023-01-20T03:48:42.794Z,98393.81
2023-01-20T03:54:11.595Z,98493.69
2023-01-20T03:59:15.571Z,98423.72
2023-01-20T04:04:20.111Z,98496.31
2023-01-20T04:09:38.333Z,98360.06
2023-01-20T04:14:40.638Z,98410.56
2023-01-20T04:19:42.920Z,98501.00
2023-01-20T04:24:57.411Z,98503.69
2023-01-20T04:29:59.717Z,98457.91
2023-01-20T04:35:01.912Z,98526.25
2023-01-20T04:40:04.518Z,98531.50
2023-01-20T04:45:07.366Z,98495.75
2023-01-20T04:50:11.771Z,98499.97
2023-01-20T04:55:14.585Z,98510.75
2023-01-20T05:00:20.220Z,98444.44
2023-01-20T05:05:22.346Z,98561.41
2023-01-20T05:10:24.629Z,98468.28
2023-01-20T05:15:27.708Z,98510.97
2023-01-20T05:20:30.197Z,98537.59
2023-01-20T05:25:32.387Z,98485.91
2023-01-20T05:30:34.864Z,98494.69
2023-01-20T05:35:38.939Z,98515.66
2023-01-20T05:40:41.216Z,98566.75
2023-01-20T05:45:43.431Z,98539.88
2023-01-20T05:50:45.568Z,98527.00
2023-01-20T05:55:47.961Z,98581.63
2023-01-20T06:00:50.126Z,98586.56
2023-01-20T06:05:52.418Z,98489.44
2023-01-20T06:10:54.987Z,98633.41
2023-01-20T06:15:57.539Z,98558.56
2023-01-20T06:21:00.441Z,98620.94
2023-01-20T06:26:12.942Z,98637.53
2023-01-20T06:31:17.235Z,98562.53
2023-01-20T06:36:19.444Z,98648.06
2023-01-20T06:41:22.253Z,98706.66
2023-01-20T06:46:24.659Z,98723.03
2023-01-20T06:51:29.815Z,98640.22
2023-01-20T06:56:32.114Z,98744.91
2023-01-20T07:01:34.911Z,98681.50
2023-01-20T07:06:40.091Z,98747.78
2023-01-20T07:11:42.372Z,98760.75
2023-01-20T07:16:44.698Z,98710.50
2023-01-20T07:21:46.911Z,98678.63
2023-01-20T07:26:49.209Z,98761.56
2023-01-20T07:31:51.405Z,98798.56
2023-01-20T07:36:53.708Z,98749.59
2023-01-20T07:41:56.028Z,98715.66
2023-01-20T07:46:58.334Z,98744.03
2023-01-20T07:52:00.607Z,98749.00
2023-01-20T07:57:02.914Z,98689.19
2023-01-20T08:02:05.222Z,98725.19
2023-01-20T08:07:07.509Z,98734.63
2023-01-20T08:12:09.642Z,98718.03
2023-01-20T08:17:11.919Z,98731.91
2023-01-20T08:22:14.222Z,98740.66
2023-01-20T08:27:16.495Z,98775.25
2023-01-20T08:32:18.660Z,98780.03
2023-01-20T08:37:21.179Z,98875.13
2023-01-20T08:42:23.390Z,98843.09
2023-01-20T08:47:25.705Z,98903.56
2023-01-20T08:52:28.750Z,98788.03
2023-01-20T08:57:30.865Z,98874.19
2023-01-20T09:02:33.213Z,98804.50
2023-01-20T09:07:36.316Z,98921.28
2023-01-20T09:12:38.617Z,98817.72
2023-01-20T09:17:40.892Z,98915.97
2023-01-20T09:22:43.375Z,98962.91
2023-01-20T09:27:45.596Z,98958.28
2023-01-20T09:32:53.257Z,98943.13
2023-01-20T09:38:14.084Z,98955.13
2023-01-20T09:44:29.923Z,98898.47
2023-01-20T09:50:27.416Z,98976.94
2023-01-20T09:55:54.252Z,98884.34
2023-01-20T10:01:30.638Z,98891.53
2023-01-20T10:06:42.042Z,99019.19
2023-01-20T10:11:47.402Z,98982.25
2023-01-20T10:17:22.696Z,98959.59
2023-01-20T10:22:52.912Z,98956.25
2023-01-20T10:28:26.814Z,99006.09
2023-01-20T10:33:35.907Z,99039.94
2023-01-20T10:38:55.227Z,98927.53
2023-01-20T10:43:59.434Z,98964.09
2023-01-20T10:49:21.284Z,99038.97
2023-01-20T10:54:45.944Z,98964.56
2023-01-20T10:59:56.117Z,99047.94
2023-01-20T11:05:02.561Z,99031.81
2023-01-20T11:10:17.830Z,99035.03
2023-01-20T11:15:25.747Z,99019.97
2023-01-20T11:20:28.130Z,98996.50
2023-01-20T11:25:30.437Z,99027.81
2023-01-20T11:30:35.046Z,99013.78
2023-01-20T11:35:37.513Z,99084.06
2023-01-20T11:40:56.371Z,99085.88
2023-01-20T11:46:26.598Z,99070.28
2023-01-20T11:51:29.077Z,99088.25
2023-01-20T11:56:39.841Z,99092.41
2023-01-20T12:02:07.336Z,99066.06
2023-01-20T12:07:23.787Z,99106.34
2023-01-20T12:12:53.395Z,99069.78
2023-01-20T12:18:09.694Z,99019.34
2023-01-20T12:23:45.848Z,99070.88
2023-01-20T12:29:05.815Z,99069.91
2023-01-20T12:34:23.198Z,99118.66
2023-01-20T12:39:38.281Z,99046.84
2023-01-20T12:44:50.179Z,99082.34
2023-01-20T12:50:21.103Z,99113.28
2023-01-20T12:56:13.703Z,99103.91
2023-01-20T13:01:16.830Z,99118.88
2023-01-20T13:06:54.594Z,99119.25
2023-01-20T13:12:16.723Z,99193.22
2023-01-20T13:17:33.025Z,99108.50
2023-01-20T13:22:35.849Z,99089.00
2023-01-20T13:27:39.151Z,99171.84
2023-01-20T13:32:46.210Z,99189.88
2023-01-20T13:37:57.637Z,99142.31
2023-01-20T13:42:59.881Z,99163.28
2023-01-20T13:48:08.403Z,99132.09
2023-01-20T13:53:10.445Z,99144.19
2023-01-20T13:58:29.273Z,99153.22
2023-01-20T14:03:37.711Z,99210.78
2023-01-20T14:08:44.225Z,99080.78
2023-01-20T14:14:02.677Z,99081.31
2023-01-20T14:19:32.398Z,99085.16
2023-01-20T14:24:37.871Z,99129.84
2023-01-20T14:29:40.175Z,99141.41
2023-01-20T14:34:42.550Z,99148.38
2023-01-20T14:39:50.051Z,99110.56
2023-01-20T14:44:57.320Z,99104.34
2023-01-20T14:49:59.809Z,99198.03
2023-01-20T14:55:02.123Z,99168.53
2023-01-20T15:00:21.024Z,99073.44
2023-01-20T15:05:30.430Z,99167.78
2023-01-20T15:10:33.095Z,99146.16
2023-01-20T15:15:35.541Z,99147.50
2023-01-20T15:21:17.168Z,99118.75
2023-01-20T15:26:30.177Z,99209.31
2023-01-20T15:31:32.379Z,99065.44
2023-01-20T15:36:36.977Z,99197.19
2023-01-20T15:41:39.572Z,99150.16
2023-01-20T15:46:42.246Z,99106.88
2023-01-20T15:51:46.209Z,99153.44
2023-01-20T15:56:48.542Z,99087.34
2023-01-20T16:01:51.264Z,99135.53
2023-01-20T16:06:53.584Z,99092.16
2023-01-20T16:11:56.056Z,99163.25
2023-01-20T16:16:58.317Z,99098.41
2023-01-20T16:22:00.735Z,99132.47
2023-01-20T16:27:12.260Z,99074.16
2023-01-20T16:32:17.328Z,99125.56
2023-01-20T16:37:20.461Z,99085.47
2023-01-20T16:42:22.598Z,99019.19
2023-01-20T16:47:24.709Z,99079.59
2023-01-20T16:52:26.968Z,99008.31
2023-01-20T16:57:29.065Z,99085.94
2023-01-20T17:02:31.671Z,99048.25
2023-01-20T17:07:34.254Z,99077.94
2023-01-20T17:12:36.395Z,99077.28
2023-01-20T17:17:41.713Z,99031.91
2023-01-20T17:22:43.967Z,99027.72
2023-01-20T17:27:46.150Z,99043.66
2023-01-20T17:32:49.565Z,99011.69
2023-01-20T17:37:51.815Z,99045.78
2023-01-20T17:42:54.333Z,99039.09
2023-01-20T17:47:56.685Z,99019.78
2023-01-20T17:52:58.924Z,99104.16
2023-01-20T17:58:01.098Z,98975.75
2023-01-20T18:03:03.276Z,99061.47
2023-01-20T18:08:05.641Z,99113.19
2023-01-20T18:13:08.062Z,99055.25
2023-01-20T18:18:10.580Z,99069.91
2023-01-20T18:23:12.715Z,99091.19
2023-01-20T18:28:14.858Z,99110.94
2023-01-20T18:33:17.121Z,99090.00
2023-01-20T18:38:19.307Z,99003.19
2023-01-20T18:43:21.789Z,99031.69
2023-01-20T18:48:25.368Z,99070.41
2023-01-20T18:53:28.998Z,99044.44
2023-01-20T18:58:31.275Z,99101.44
2023-01-20T19:03:35.393Z,99121.41
2023-01-20T19:08:39.714Z,99080.38
2023-01-20T19:13:43.687Z,99112.78
2023-01-20T19:18:55.544Z,99104.16
2023-01-20T19:24:01.340Z,99037.78
2023-01-20T19:29:08.070Z,99122.66
2023-01-20T19:34:13.039Z,99087.06
2023-01-20T19:39:16.229Z,99053.75
2023-01-20T19:44:18.630Z,99112.19
2023-01-20T19:49:20.914Z,99028.47
2023-01-20T19:54:24.262Z,99045.75
2023-01-20T19:59:26.437Z,99046.75
2023-01-20T20:04:28.774Z,99144.81
2023-01-20T20:09:31.138Z,99083.47
2023-01-20T20:14:34.726Z,99100.78
2023-01-20T20:19:37.174Z,99135.06
2023-01-20T20:24:39.450Z,99010.72
2023-01-20T20:29:41.815Z,99108.50
2023-01-20T20:34:43.933Z,99064.53
2023-01-20T20:39:46.165Z,99059.59
2023-01-20T20:44:48.339Z,99073.34
2023-01-20T20:49:50.460Z,99103.69
2023-01-20T20:54:54.006Z,99128.06
2023-01-20T20:59:59.365Z,99092.28
2023-01-20T21:05:02.023Z,99128.56
2023-01-20T21:10:04.984Z,99097.50
2023-01-20T21:15:08.798Z,99071.47
2023-01-20T21:20:11.615Z,99185.38
2023-01-20T21:25:13.780Z,99086.06
2023-01-20T21:30:16.979Z,99118.31
2023-01-20T21:35:19.290Z,99200.25
2023-01-20T21:40:21.512Z,99084.59
2023-01-20T21:45:23.626Z,99185.41
2023-01-20T21:50:44.460Z,99172.78
2023-01-20T21:55:46.721Z,99164.13
2023-01-20T22:00:49.553Z,99178.44
2023-01-20T22:05:51.747Z,99213.00
2023-01-20T22:10:58.719Z,99185.97
2023-01-20T22:16:05.100Z,99184.81
2023-01-20T22:21:08.366Z,99119.25
2023-01-20T22:26:10.799Z,99153.97
2023-01-20T22:31:21.796Z,99185.34
2023-01-20T22:36:25.438Z,99085.47
2023-01-20T22:41:28.108Z,99207.41
2023-01-20T22:46:30.682Z,99183.47
2023-01-20T22:51:33.048Z,99210.91
2023-01-20T22:56:35.192Z,99206.59
2023-01-20T23:01:37.491Z,99198.59
2023-01-20T23:06:39.998Z,99185.13
2023-01-20T23:11:42.552Z,99113.66
2023-01-20T23:16:44.717Z,99184.53
2023-01-20T23:21:47.004Z,99108.06
2023-01-20T23:26:49.243Z,99091.31
2023-01-20T23:31:51.829Z,99070.00
2023-01-20T23:36:54.100Z,99146.19
2023-01-20T23:41:56.741Z,99170.75
2023-01-20T23:46:59.238Z,99083.84
2023-01-20T23:52:01.560Z,99164.41
2023-01-20T23:57:03.962Z,99071.66
